createdAt,value
2022-08-18T00:04:03.235Z,94.30
2022-08-18T00:09:07.341Z,94.40
2022-08-18T00:14:05.891Z,94.50
2022-08-18T00:19:09.242Z,94.50
2022-08-18T00:24:07.895Z,94.60
2022-08-18T00:29:06.059Z,94.70
2022-08-18T00:34:06.555Z,94.80
2022-08-18T00:39:05.447Z,95.00
2022-08-18T00:44:04.837Z,95.00
2022-08-18T00:49:03.565Z,94.90
2022-08-18T00:54:10.040Z,95.10
2022-08-18T00:59:15.618Z,95.10
2022-08-18T01:04:18.964Z,95.20
2022-08-18T01:09:18.913Z,95.10
2022-08-18T01:14:18.298Z,94.80
2022-08-18T01:19:35.910Z,94.70
2022-08-18T01:24:56.006Z,94.70
2022-08-18T01:29:54.458Z,94.60
2022-08-18T01:34:54.957Z,94.50
2022-08-18T01:41:21.055Z,94.30
2022-08-18T01:45:15.093Z,94.00
2022-08-18T01:50:13.556Z,93.70
2022-08-18T01:55:14.592Z,93.60
2022-08-18T02:00:14.954Z,93.60
2022-08-18T02:05:19.261Z,93.20
2022-08-18T02:10:19.825Z,93.30
2022-08-18T02:15:18.208Z,93.30
2022-08-18T02:20:19.478Z,93.20
2022-08-18T02:25:20.533Z,93.30
2022-08-18T02:30:20.814Z,93.20
2022-08-18T02:35:19.173Z,93.20
2022-08-18T02:40:20.149Z,93.10
2022-08-18T02:45:18.521Z,93.00
2022-08-18T02:50:16.739Z,93.00
2022-08-18T02:55:15.863Z,93.00
2022-08-18T03:00:19.063Z,92.70
2022-08-18T03:05:17.749Z,92.90
2022-08-18T03:10:32.891Z,92.90
2022-08-18T03:15:33.776Z,92.80
2022-08-18T03:20:31.927Z,92.70
2022-08-18T03:25:30.111Z,92.60
2022-08-18T03:30:28.299Z,92.70
2022-08-18T03:35:28.813Z,92.60
2022-08-18T03:40:26.997Z,92.70
2022-08-18T03:45:28.519Z,92.60
2022-08-18T03:50:28.199Z,92.60
2022-08-18T03:55:27.691Z,92.60
2022-08-18T04:00:27.836Z,92.40
2022-08-18T04:05:28.762Z,92.40
2022-08-18T04:10:26.973Z,92.60
2022-08-18T04:15:25.274Z,92.50
2022-08-18T04:20:32.412Z,92.40
2022-08-18T04:25:33.457Z,92.20
2022-08-18T04:30:38.320Z,92.40
2022-08-18T04:35:40.105Z,92.60
2022-08-18T04:40:41.503Z,92.60
2022-08-18T04:45:40.455Z,92.70
2022-08-18T04:50:40.984Z,92.70
2022-08-18T04:55:39.196Z,92.90
2022-08-18T05:00:37.584Z,92.90
2022-08-18T05:05:35.787Z,93.00
2022-08-18T05:10:36.498Z,93.10
2022-08-18T05:15:52.927Z,93.40
2022-08-18T05:20:58.632Z,93.50
2022-08-18T05:26:03.697Z,93.70
2022-08-18T05:31:13.126Z,93.90
2022-08-18T05:36:25.559Z,93.90
2022-08-18T05:41:29.941Z,94.10
2022-08-18T05:46:40.041Z,94.20
2022-08-18T05:51:43.319Z,94.00
2022-08-18T05:56:47.412Z,94.20
2022-08-18T06:01:52.649Z,94.30
2022-08-18T06:06:53.167Z,94.30
2022-08-18T06:12:05.044Z,94.20
2022-08-18T06:17:10.735Z,94.30
2022-08-18T06:22:19.841Z,94.50
2022-08-18T06:27:27.933Z,94.60
2022-08-18T06:32:52.922Z,95.00
2022-08-18T06:38:30.476Z,95.00
2022-08-18T06:43:34.294Z,95.20
2022-08-18T06:48:39.064Z,95.50
2022-08-18T06:53:59.247Z,95.60
2022-08-18T06:59:15.966Z,95.40
2022-08-18T07:04:32.672Z,95.20
2022-08-18T07:09:35.774Z,95.30
2022-08-18T07:14:44.436Z,95.20
2022-08-18T07:19:43.699Z,94.90
2022-08-18T07:24:44.642Z,95.10
2022-08-18T07:30:03.445Z,95.00
2022-08-18T07:35:05.660Z,94.60
2022-08-18T07:40:12.742Z,94.80
2022-08-18T07:45:23.799Z,94.80
2022-08-18T07:50:42.135Z,94.50
2022-08-18T07:55:45.193Z,94.60
2022-08-18T08:00:59.770Z,94.70
2022-08-18T08:06:06.783Z,94.60
2022-08-18T08:11:18.000Z,94.50
2022-08-18T08:16:26.362Z,94.30
2022-08-18T08:21:29.728Z,94.40
2022-08-18T08:26:45.017Z,94.30
2022-08-18T08:31:57.547Z,94.00
2022-08-18T08:37:02.466Z,94.10
2022-08-18T08:42:31.509Z,94.20
2022-08-18T08:47:33.559Z,94.10
2022-08-18T08:52:39.369Z,94.20
2022-08-18T08:57:42.821Z,94.00
2022-08-18T09:03:13.445Z,94.10
2022-08-18T09:08:23.851Z,93.30
2022-08-18T09:13:44.216Z,93.80
2022-08-18T09:19:06.607Z,93.80
2022-08-18T09:24:11.080Z,93.80
2022-08-18T09:29:18.373Z,93.70
2022-08-18T09:34:45.456Z,93.60
2022-08-18T09:45:55.460Z,93.80
2022-08-18T09:51:24.732Z,93.00
2022-08-18T09:56:59.253Z,93.50
2022-08-18T10:02:47.598Z,93.10
2022-08-18T10:07:50.314Z,93.10
2022-08-18T10:13:04.883Z,93.60
2022-08-18T10:18:30.589Z,93.20
2022-08-18T10:24:07.991Z,93.20
2022-08-18T10:29:08.543Z,93.10
2022-08-18T10:34:17.178Z,92.90
2022-08-18T10:39:22.114Z,92.50
2022-08-18T10:44:29.290Z,92.80
2022-08-18T10:49:33.184Z,92.50
2022-08-18T10:54:52.004Z,92.50
2022-08-18T11:00:00.913Z,92.10
2022-08-18T11:05:00.055Z,92.20
2022-08-18T11:10:27.950Z,92.00
2022-08-18T11:20:47.972Z,92.20
2022-08-18T11:25:49.905Z,91.90
2022-08-18T11:30:52.640Z,91.80
2022-08-18T11:35:53.281Z,91.70
2022-08-18T11:41:13.007Z,90.90
2022-08-18T11:46:27.683Z,90.60
2022-08-18T11:51:32.331Z,90.70
2022-08-18T11:56:36.009Z,90.40
2022-08-18T12:01:51.252Z,90.20
2022-08-18T12:07:02.263Z,90.10
2022-08-18T12:12:14.612Z,89.50
2022-08-18T12:17:16.649Z,87.90
2022-08-18T12:22:18.513Z,88.00
2022-08-18T12:27:21.556Z,87.80
2022-08-18T12:32:47.149Z,86.10
2022-08-18T12:38:12.460Z,86.40
2022-08-18T12:43:11.108Z,83.90
2022-08-18T12:48:09.928Z,85.30
2022-08-18T12:53:10.076Z,85.10
2022-08-18T12:58:08.618Z,83.80
2022-08-18T13:03:08.637Z,84.90
2022-08-18T13:08:12.537Z,83.90
2022-08-18T13:13:17.330Z,82.30
2022-08-18T13:18:16.982Z,81.80
2022-08-18T13:23:15.728Z,82.60
2022-08-18T13:28:17.270Z,81.40
2022-08-18T13:33:57.121Z,81.30
2022-08-18T13:38:41.539Z,80.60
2022-08-18T13:43:45.545Z,78.60
2022-08-18T13:48:47.739Z,78.00
2022-08-18T13:53:57.623Z,78.50
2022-08-18T13:58:58.824Z,78.50
2022-08-18T14:03:58.471Z,77.70
2022-08-18T14:08:56.695Z,77.30
2022-08-18T14:13:55.481Z,77.20
2022-08-18T14:19:19.397Z,76.90
2022-08-18T14:24:39.881Z,77.20
2022-08-18T14:29:45.766Z,75.70
2022-08-18T14:34:50.713Z,76.80
2022-08-18T14:39:53.878Z,77.70
2022-08-18T14:44:52.361Z,77.00
2022-08-18T14:50:13.137Z,76.40
2022-08-18T14:55:19.058Z,75.80
2022-08-18T15:00:20.956Z,75.70
2022-08-18T15:05:24.447Z,75.80
2022-08-18T15:10:28.119Z,75.40
2022-08-18T15:15:27.382Z,76.70
2022-08-18T15:20:55.154Z,76.00
2022-08-18T15:25:54.930Z,76.50
2022-08-18T15:36:16.191Z,75.70
2022-08-18T15:41:29.602Z,75.90
2022-08-18T15:46:29.638Z,75.80
2022-08-18T15:51:41.027Z,75.40
2022-08-18T15:56:43.219Z,75.20
2022-08-18T16:01:43.464Z,75.10
2022-08-18T16:06:46.255Z,74.70
2022-08-18T16:11:46.046Z,74.70
2022-08-18T16:16:44.246Z,75.50
2022-08-18T16:21:42.589Z,75.40
2022-08-18T16:26:40.842Z,75.30
2022-08-18T16:31:41.008Z,75.80
2022-08-18T16:36:44.563Z,75.90
2022-08-18T16:41:42.873Z,76.30
2022-08-18T16:46:42.469Z,77.20
2022-08-18T16:51:40.910Z,78.30
2022-08-18T16:56:39.359Z,79.50
2022-08-18T17:01:56.414Z,80.20
2022-08-18T17:06:56.897Z,80.90
2022-08-18T17:11:55.826Z,81.00
2022-08-18T17:16:55.269Z,81.30
2022-08-18T17:21:55.370Z,81.70
2022-08-18T17:27:00.319Z,81.90
2022-08-18T17:32:05.607Z,82.90
2022-08-18T17:37:08.666Z,82.30
2022-08-18T17:42:25.090Z,82.20
2022-08-18T17:47:28.986Z,82.30
2022-08-18T17:52:31.656Z,82.40
2022-08-18T17:57:34.113Z,82.70
2022-08-18T18:02:33.906Z,83.80
2022-08-18T18:07:38.513Z,82.70
2022-08-18T18:12:38.416Z,83.00
2022-08-18T18:17:39.240Z,83.30
2022-08-18T18:22:39.951Z,83.50
2022-08-18T18:27:41.917Z,84.10
2022-08-18T18:32:59.692Z,84.40
2022-08-18T18:38:01.654Z,84.50
2022-08-18T18:43:19.588Z,85.10
2022-08-18T18:48:51.295Z,84.90
2022-08-18T18:53:51.958Z,85.70
2022-08-18T18:58:59.416Z,86.00
2022-08-18T19:04:04.537Z,86.60
2022-08-18T19:09:14.980Z,87.00
2022-08-18T19:14:20.126Z,87.30
2022-08-18T19:19:37.799Z,88.00
2022-08-18T19:24:46.139Z,88.70
2022-08-18T19:29:46.362Z,89.10
2022-08-18T19:34:52.642Z,89.50
2022-08-18T19:40:02.152Z,90.10
2022-08-18T19:45:16.938Z,90.00
2022-08-18T19:50:26.015Z,90.30
2022-08-18T19:55:38.714Z,90.30
2022-08-18T20:00:44.782Z,90.30
2022-08-18T20:05:51.606Z,90.40
2022-08-18T20:11:17.523Z,90.60
2022-08-18T20:16:43.116Z,90.40
2022-08-18T20:21:45.532Z,90.60
2022-08-18T20:26:50.182Z,90.60
2022-08-18T20:31:55.125Z,90.80
2022-08-18T20:36:54.067Z,90.80
2022-08-18T20:41:53.685Z,91.00
2022-08-18T20:47:04.076Z,91.00
2022-08-18T20:52:06.480Z,91.00
2022-08-18T20:57:10.406Z,91.20
2022-08-18T21:02:24.989Z,91.30
2022-08-18T21:07:36.414Z,91.40
2022-08-18T21:12:37.050Z,91.40
2022-08-18T21:17:35.430Z,91.40
2022-08-18T21:22:34.370Z,91.30
2022-08-18T21:27:35.337Z,91.40
2022-08-18T21:32:37.031Z,91.40
2022-08-18T21:37:35.198Z,91.20
2022-08-18T21:42:43.511Z,91.00
2022-08-18T21:47:49.593Z,91.00
2022-08-18T21:52:54.275Z,91.10
2022-08-18T21:58:03.017Z,91.10
2022-08-18T22:03:16.586Z,91.00
2022-08-18T22:08:21.272Z,91.40
2022-08-18T22:13:40.377Z,91.10
2022-08-18T22:18:40.883Z,91.10
2022-08-18T22:23:57.658Z,91.10
2022-08-18T22:29:00.251Z,91.00
2022-08-18T22:34:03.251Z,91.00
2022-08-18T22:39:01.701Z,91.20
2022-08-18T22:44:02.474Z,91.20
2022-08-18T22:49:03.238Z,91.20
2022-08-18T22:54:01.651Z,91.30
2022-08-18T22:58:59.853Z,91.70
2022-08-18T23:04:07.563Z,91.80
2022-08-18T23:09:06.124Z,91.80
2022-08-18T23:14:04.448Z,92.00
2022-08-18T23:19:02.906Z,92.10
2022-08-18T23:24:02.479Z,92.20
2022-08-18T23:29:00.904Z,92.30
2022-08-18T23:34:00.695Z,92.40
2022-08-18T23:38:59.527Z,92.30
2022-08-18T23:43:59.918Z,92.40
2022-08-18T23:49:00.003Z,92.50
2022-08-18T23:54:00.014Z,92.50
2022-08-18T23:59:00.549Z,92.90
